sensor_id;sensor_type;location;lat;lon;timestamp;P1;durP1;ratioP1;P2;durP2;ratioP2
35757;SDS011;21879;50.110;18.900;2023-06-14T00:03:16;12.80;;;8.00;;
35757;SDS011;21879;50.110;18.900;2023-06-14T00:13:45;12.50;;;7.00;;
35757;SDS011;21879;50.110;18.900;2023-06-14T00:24:12;16.70;;;8.90;;
35757;SDS011;21879;50.110;18.900;2023-06-14T00:34:38;11.60;;;7.20;;
35757;SDS011;21879;50.110;18.900;2023-06-14T00:45:04;13.00;;;7.00;;
35757;SDS011;21879;50.110;18.900;2023-06-14T00:55:31;10.40;;;6.80;;
35757;SDS011;21879;50.110;18.900;2023-06-14T01:05:59;12.60;;;7.80;;
35757;SDS011;21879;50.110;18.900;2023-06-14T01:16:33;9.90;;;7.20;;
35757;SDS011;21879;50.110;18.900;2023-06-14T01:27:03;11.60;;;7.40;;
35757;SDS011;21879;50.110;18.900;2023-06-14T01:37:30;5.70;;;4.00;;
35757;SDS011;21879;50.110;18.900;2023-06-14T01:47:56;6.80;;;5.10;;
35757;SDS011;21879;50.110;18.900;2023-06-14T01:58:23;9.40;;;5.80;;
35757;SDS011;21879;50.110;18.900;2023-06-14T02:08:49;8.00;;;5.50;;
35757;SDS011;21879;50.110;18.900;2023-06-14T02:19:15;10.20;;;6.10;;
35757;SDS011;21879;50.110;18.900;2023-06-14T02:29:41;7.80;;;4.80;;
35757;SDS011;21879;50.110;18.900;2023-06-14T02:40:08;10.30;;;5.70;;
35757;SDS011;21879;50.110;18.900;2023-06-14T02:50:36;6.70;;;4.20;;
35757;SDS011;21879;50.110;18.900;2023-06-14T03:01:02;9.20;;;6.00;;
35757;SDS011;21879;50.110;18.900;2023-06-14T03:11:30;11.10;;;7.10;;
35757;SDS011;21879;50.110;18.900;2023-06-14T03:21:56;13.40;;;8.40;;
35757;SDS011;21879;50.110;18.900;2023-06-14T03:32:23;13.90;;;9.90;;
35757;SDS011;21879;50.110;18.900;2023-06-14T03:42:49;13.60;;;9.30;;
35757;SDS011;21879;50.110;18.900;2023-06-14T03:53:15;11.70;;;7.80;;
35757;SDS011;21879;50.110;18.900;2023-06-14T04:03:43;13.70;;;8.80;;
35757;SDS011;21879;50.110;18.900;2023-06-14T04:14:09;15.40;;;8.60;;
35757;SDS011;21879;50.110;18.900;2023-06-14T04:24:35;16.60;;;10.00;;
35757;SDS011;21879;50.110;18.900;2023-06-14T04:35:01;18.40;;;10.10;;
35757;SDS011;21879;50.110;18.900;2023-06-14T04:45:28;17.60;;;11.40;;
35757;SDS011;21879;50.110;18.900;2023-06-14T04:55:55;16.70;;;11.10;;
35757;SDS011;21879;50.110;18.900;2023-06-14T05:06:20;17.90;;;12.80;;
35757;SDS011;21879;50.110;18.900;2023-06-14T05:16:46;18.60;;;13.00;;
35757;SDS011;21879;50.110;18.900;2023-06-14T05:27:13;16.10;;;12.30;;
35757;SDS011;21879;50.110;18.900;2023-06-14T05:37:39;19.80;;;12.00;;
35757;SDS011;21879;50.110;18.900;2023-06-14T05:48:05;15.90;;;11.80;;
35757;SDS011;21879;50.110;18.900;2023-06-14T05:58:31;18.20;;;12.50;;
35757;SDS011;21879;50.110;18.900;2023-06-14T06:08:57;16.20;;;10.90;;
35757;SDS011;21879;50.110;18.900;2023-06-14T06:19:23;17.90;;;11.70;;
35757;SDS011;21879;50.110;18.900;2023-06-14T06:29:49;15.80;;;11.10;;
35757;SDS011;21879;50.110;18.900;2023-06-14T06:40:16;16.50;;;11.30;;
35757;SDS011;21879;50.110;18.900;2023-06-14T06:50:42;22.20;;;11.90;;
35757;SDS011;21879;50.110;18.900;2023-06-14T07:01:08;18.80;;;11.60;;
35757;SDS011;21879;50.110;18.900;2023-06-14T07:11:34;21.00;;;12.60;;
35757;SDS011;21879;50.110;18.900;2023-06-14T07:22:08;20.30;;;11.80;;
35757;SDS011;21879;50.110;18.900;2023-06-14T07:32:35;21.70;;;12.90;;
35757;SDS011;21879;50.110;18.900;2023-06-14T07:43:02;23.20;;;13.90;;
35757;SDS011;21879;50.110;18.900;2023-06-14T07:53:28;23.20;;;13.30;;
35757;SDS011;21879;50.110;18.900;2023-06-14T08:03:54;23.70;;;15.70;;
35757;SDS011;21879;50.110;18.900;2023-06-14T08:14:20;21.70;;;13.40;;
35757;SDS011;21879;50.110;18.900;2023-06-14T08:24:45;24.80;;;15.50;;
35757;SDS011;21879;50.110;18.900;2023-06-14T08:35:11;26.90;;;15.70;;
35757;SDS011;21879;50.110;18.900;2023-06-14T08:45:38;23.10;;;15.70;;
35757;SDS011;21879;50.110;18.900;2023-06-14T08:56:05;21.60;;;15.90;;
35757;SDS011;21879;50.110;18.900;2023-06-14T09:06:36;24.20;;;16.60;;
35757;SDS011;21879;50.110;18.900;2023-06-14T09:17:02;23.10;;;15.40;;
35757;SDS011;21879;50.110;18.900;2023-06-14T09:27:29;23.10;;;15.00;;
35757;SDS011;21879;50.110;18.900;2023-06-14T09:37:58;22.50;;;14.70;;
35757;SDS011;21879;50.110;18.900;2023-06-14T09:48:24;19.40;;;13.80;;
35757;SDS011;21879;50.110;18.900;2023-06-14T09:58:50;14.20;;;10.60;;
35757;SDS011;21879;50.110;18.900;2023-06-14T10:09:30;16.10;;;11.80;;
35757;SDS011;21879;50.110;18.900;2023-06-14T10:20:02;13.80;;;10.50;;
35757;SDS011;21879;50.110;18.900;2023-06-14T10:30:38;13.20;;;9.40;;
35757;SDS011;21879;50.110;18.900;2023-06-14T10:41:25;10.30;;;7.10;;
35757;SDS011;21879;50.110;18.900;2023-06-14T11:02:44;10.00;;;7.20;;
35757;SDS011;21879;50.110;18.900;2023-06-14T11:13:17;9.50;;;7.30;;
35757;SDS011;21879;50.110;18.900;2023-06-14T11:23:43;8.70;;;6.40;;
35757;SDS011;21879;50.110;18.900;2023-06-14T11:34:16;7.50;;;6.70;;
35757;SDS011;21879;50.110;18.900;2023-06-14T11:44:43;7.70;;;6.20;;
35757;SDS011;21879;50.110;18.900;2023-06-14T11:55:11;7.30;;;6.40;;
35757;SDS011;21879;50.110;18.900;2023-06-14T12:05:37;7.20;;;5.20;;
35757;SDS011;21879;50.110;18.900;2023-06-14T12:16:04;5.40;;;4.40;;
35757;SDS011;21879;50.110;18.900;2023-06-14T12:26:30;4.60;;;3.50;;
35757;SDS011;21879;50.110;18.900;2023-06-14T12:36:56;3.80;;;2.70;;
35757;SDS011;21879;50.110;18.900;2023-06-14T12:47:23;3.50;;;2.70;;
35757;SDS011;21879;50.110;18.900;2023-06-14T12:57:50;3.90;;;2.90;;
35757;SDS011;21879;50.110;18.900;2023-06-14T13:08:16;4.30;;;2.60;;
35757;SDS011;21879;50.110;18.900;2023-06-14T13:18:46;3.10;;;2.60;;
35757;SDS011;21879;50.110;18.900;2023-06-14T13:29:12;2.90;;;2.20;;
35757;SDS011;21879;50.110;18.900;2023-06-14T13:39:39;2.80;;;2.40;;
35757;SDS011;21879;50.110;18.900;2023-06-14T13:50:05;4.20;;;2.50;;
35757;SDS011;21879;50.110;18.900;2023-06-14T14:00:33;4.60;;;2.90;;
35757;SDS011;21879;50.110;18.900;2023-06-14T14:11:04;4.70;;;2.90;;
35757;SDS011;21879;50.110;18.900;2023-06-14T14:21:31;2.70;;;2.10;;
35757;SDS011;21879;50.110;18.900;2023-06-14T14:31:58;4.20;;;2.00;;
35757;SDS011;21879;50.110;18.900;2023-06-14T14:42:24;4.30;;;2.20;;
35757;SDS011;21879;50.110;18.900;2023-06-14T14:52:51;4.70;;;2.50;;
35757;SDS011;21879;50.110;18.900;2023-06-14T15:03:17;4.00;;;3.00;;
35757;SDS011;21879;50.110;18.900;2023-06-14T15:13:44;6.90;;;4.30;;
35757;SDS011;21879;50.110;18.900;2023-06-14T15:24:10;5.60;;;2.90;;
35757;SDS011;21879;50.110;18.900;2023-06-14T15:34:36;5.50;;;3.10;;
35757;SDS011;21879;50.110;18.900;2023-06-14T15:45:03;6.80;;;3.30;;
35757;SDS011;21879;50.110;18.900;2023-06-14T15:55:30;5.00;;;3.60;;
35757;SDS011;21879;50.110;18.900;2023-06-14T16:05:56;5.60;;;3.40;;
35757;SDS011;21879;50.110;18.900;2023-06-14T16:16:22;4.30;;;3.20;;
35757;SDS011;21879;50.110;18.900;2023-06-14T16:26:48;5.60;;;2.80;;
35757;SDS011;21879;50.110;18.900;2023-06-14T16:37:17;4.80;;;2.90;;
35757;SDS011;21879;50.110;18.900;2023-06-14T16:47:44;6.00;;;3.90;;
35757;SDS011;21879;50.110;18.900;2023-06-14T16:58:10;5.40;;;3.70;;
35757;SDS011;21879;50.110;18.900;2023-06-14T17:08:37;5.20;;;3.80;;
35757;SDS011;21879;50.110;18.900;2023-06-14T17:19:03;3.70;;;2.90;;
35757;SDS011;21879;50.110;18.900;2023-06-14T17:29:29;4.50;;;3.60;;
35757;SDS011;21879;50.110;18.900;2023-06-14T17:39:55;4.60;;;3.10;;
35757;SDS011;21879;50.110;18.900;2023-06-14T17:50:21;6.20;;;3.50;;
35757;SDS011;21879;50.110;18.900;2023-06-14T18:00:47;6.70;;;3.50;;
35757;SDS011;21879;50.110;18.900;2023-06-14T18:11:15;6.50;;;3.90;;
35757;SDS011;21879;50.110;18.900;2023-06-14T18:21:41;6.20;;;3.80;;
35757;SDS011;21879;50.110;18.900;2023-06-14T18:32:08;6.20;;;4.40;;
35757;SDS011;21879;50.110;18.900;2023-06-14T18:42:34;6.70;;;4.70;;
35757;SDS011;21879;50.110;18.900;2023-06-14T18:53:00;6.50;;;4.20;;
35757;SDS011;21879;50.110;18.900;2023-06-14T19:03:26;6.90;;;3.70;;
35757;SDS011;21879;50.110;18.900;2023-06-14T19:13:53;5.30;;;4.00;;
35757;SDS011;21879;50.110;18.900;2023-06-14T19:24:19;6.50;;;4.90;;
35757;SDS011;21879;50.110;18.900;2023-06-14T19:34:46;7.50;;;4.60;;
35757;SDS011;21879;50.110;18.900;2023-06-14T19:45:12;5.50;;;3.80;;
35757;SDS011;21879;50.110;18.900;2023-06-14T19:55:40;6.60;;;5.00;;
35757;SDS011;21879;50.110;18.900;2023-06-14T20:06:05;6.50;;;4.70;;
35757;SDS011;21879;50.110;18.900;2023-06-14T20:16:33;6.70;;;4.50;;
35757;SDS011;21879;50.110;18.900;2023-06-14T20:27:00;5.90;;;4.50;;
35757;SDS011;21879;50.110;18.900;2023-06-14T20:37:26;6.50;;;4.90;;
35757;SDS011;21879;50.110;18.900;2023-06-14T20:47:53;7.40;;;4.80;;
35757;SDS011;21879;50.110;18.900;2023-06-14T20:58:20;6.00;;;4.70;;
35757;SDS011;21879;50.110;18.900;2023-06-14T21:08:47;6.40;;;4.80;;
35757;SDS011;21879;50.110;18.900;2023-06-14T21:19:15;6.80;;;5.00;;
35757;SDS011;21879;50.110;18.900;2023-06-14T21:29:41;8.00;;;5.60;;
35757;SDS011;21879;50.110;18.900;2023-06-14T21:40:08;6.40;;;4.00;;
35757;SDS011;21879;50.110;18.900;2023-06-14T21:50:35;7.70;;;4.90;;
35757;SDS011;21879;50.110;18.900;2023-06-14T22:01:01;6.60;;;4.70;;
35757;SDS011;21879;50.110;18.900;2023-06-14T22:11:28;4.80;;;3.70;;
35757;SDS011;21879;50.110;18.900;2023-06-14T22:21:57;8.20;;;5.20;;
35757;SDS011;21879;50.110;18.900;2023-06-14T22:32:23;10.40;;;7.30;;
35757;SDS011;21879;50.110;18.900;2023-06-14T22:42:52;11.10;;;7.90;;
35757;SDS011;21879;50.110;18.900;2023-06-14T22:53:20;11.40;;;8.30;;
35757;SDS011;21879;50.110;18.900;2023-06-14T23:03:48;10.60;;;6.80;;
35757;SDS011;21879;50.110;18.900;2023-06-14T23:14:14;10.10;;;7.00;;
35757;SDS011;21879;50.110;18.900;2023-06-14T23:24:40;8.10;;;6.60;;
35757;SDS011;21879;50.110;18.900;2023-06-14T23:35:07;13.80;;;7.80;;
35757;SDS011;21879;50.110;18.900;2023-06-14T23:45:36;8.90;;;6.70;;
35757;SDS011;21879;50.110;18.900;2023-06-14T23:56:03;10.20;;;7.40;;
